sensor_id;sensor_type;location;lat;lon;timestamp;P1;durP1;ratioP1;P2;durP2;ratioP2
64291;SDS011;50628;51.008;13.658;2024-03-08T00:03:03;33.40;;;21.37;;
64291;SDS011;50628;51.008;13.658;2024-03-08T00:08:06;30.57;;;21.07;;
64291;SDS011;50628;51.008;13.658;2024-03-08T00:13:10;30.30;;;21.70;;
64291;SDS011;50628;51.008;13.658;2024-03-08T00:18:13;30.57;;;20.90;;
64291;SDS011;50628;51.008;13.658;2024-03-08T00:23:15;29.30;;;21.10;;
64291;SDS011;50628;51.008;13.658;2024-03-08T00:28:17;30.47;;;21.37;;
64291;SDS011;50628;51.008;13.658;2024-03-08T00:33:20;29.77;;;21.17;;
64291;SDS011;50628;51.008;13.658;2024-03-08T00:38:22;30.43;;;21.70;;
64291;SDS011;50628;51.008;13.658;2024-03-08T00:43:24;33.37;;;21.33;;
64291;SDS011;50628;51.008;13.658;2024-03-08T00:48:27;28.70;;;20.93;;
64291;SDS011;50628;51.008;13.658;2024-03-08T00:53:29;30.37;;;20.63;;
64291;SDS011;50628;51.008;13.658;2024-03-08T00:58:31;30.23;;;21.90;;
64291;SDS011;50628;51.008;13.658;2024-03-08T01:03:34;34.00;;;21.60;;
64291;SDS011;50628;51.008;13.658;2024-03-08T01:08:36;32.53;;;21.23;;
64291;SDS011;50628;51.008;13.658;2024-03-08T01:13:38;30.03;;;21.17;;
64291;SDS011;50628;51.008;13.658;2024-03-08T01:18:41;30.83;;;21.83;;
64291;SDS011;50628;51.008;13.658;2024-03-08T01:23:43;34.33;;;21.13;;
64291;SDS011;50628;51.008;13.658;2024-03-08T01:28:45;34.00;;;21.60;;
64291;SDS011;50628;51.008;13.658;2024-03-08T01:33:48;36.50;;;21.97;;
64291;SDS011;50628;51.008;13.658;2024-03-08T01:38:50;36.37;;;22.70;;
64291;SDS011;50628;51.008;13.658;2024-03-08T01:43:52;33.03;;;21.50;;
64291;SDS011;50628;51.008;13.658;2024-03-08T01:48:56;34.40;;;21.40;;
64291;SDS011;50628;51.008;13.658;2024-03-08T01:53:58;33.20;;;21.87;;
64291;SDS011;50628;51.008;13.658;2024-03-08T01:59:03;31.40;;;21.73;;
64291;SDS011;50628;51.008;13.658;2024-03-08T02:04:09;34.03;;;22.20;;
64291;SDS011;50628;51.008;13.658;2024-03-08T02:09:11;34.00;;;22.10;;
64291;SDS011;50628;51.008;13.658;2024-03-08T02:14:13;32.63;;;22.33;;
64291;SDS011;50628;51.008;13.658;2024-03-08T02:19:16;35.33;;;22.23;;
64291;SDS011;50628;51.008;13.658;2024-03-08T02:24:19;33.67;;;21.83;;
64291;SDS011;50628;51.008;13.658;2024-03-08T02:29:21;32.10;;;20.63;;
64291;SDS011;50628;51.008;13.658;2024-03-08T02:34:24;31.97;;;21.10;;
64291;SDS011;50628;51.008;13.658;2024-03-08T02:39:27;32.27;;;21.97;;
64291;SDS011;50628;51.008;13.658;2024-03-08T02:44:29;30.77;;;21.37;;
64291;SDS011;50628;51.008;13.658;2024-03-08T02:49:31;31.23;;;21.40;;
64291;SDS011;50628;51.008;13.658;2024-03-08T02:54:34;34.23;;;22.53;;
64291;SDS011;50628;51.008;13.658;2024-03-08T02:59:37;36.40;;;22.07;;
64291;SDS011;50628;51.008;13.658;2024-03-08T03:04:39;35.80;;;21.93;;
64291;SDS011;50628;51.008;13.658;2024-03-08T03:09:43;36.03;;;22.97;;
64291;SDS011;50628;51.008;13.658;2024-03-08T03:14:45;33.97;;;23.27;;
64291;SDS011;50628;51.008;13.658;2024-03-08T03:19:47;36.53;;;24.07;;
64291;SDS011;50628;51.008;13.658;2024-03-08T03:24:50;35.53;;;22.40;;
64291;SDS011;50628;51.008;13.658;2024-03-08T03:29:53;32.90;;;22.37;;
64291;SDS011;50628;51.008;13.658;2024-03-08T03:34:55;39.37;;;23.07;;
64291;SDS011;50628;51.008;13.658;2024-03-08T03:39:59;33.83;;;22.10;;
64291;SDS011;50628;51.008;13.658;2024-03-08T03:45:02;40.27;;;23.60;;
64291;SDS011;50628;51.008;13.658;2024-03-08T03:50:05;36.73;;;22.83;;
64291;SDS011;50628;51.008;13.658;2024-03-08T03:55:12;34.50;;;24.07;;
64291;SDS011;50628;51.008;13.658;2024-03-08T04:00:14;35.47;;;22.63;;
64291;SDS011;50628;51.008;13.658;2024-03-08T04:05:16;37.57;;;24.17;;
64291;SDS011;50628;51.008;13.658;2024-03-08T04:10:20;37.60;;;23.17;;
64291;SDS011;50628;51.008;13.658;2024-03-08T04:15:22;37.70;;;24.27;;
64291;SDS011;50628;51.008;13.658;2024-03-08T04:20:23;36.53;;;23.73;;
64291;SDS011;50628;51.008;13.658;2024-03-08T04:25:27;35.33;;;22.90;;
64291;SDS011;50628;51.008;13.658;2024-03-08T04:30:29;40.67;;;23.10;;
64291;SDS011;50628;51.008;13.658;2024-03-08T04:35:30;36.43;;;23.53;;
64291;SDS011;50628;51.008;13.658;2024-03-08T04:40:34;50.03;;;24.80;;
64291;SDS011;50628;51.008;13.658;2024-03-08T04:45:36;36.17;;;22.87;;
64291;SDS011;50628;51.008;13.658;2024-03-08T04:50:38;34.07;;;22.70;;
64291;SDS011;50628;51.008;13.658;2024-03-08T04:55:41;37.20;;;25.10;;
64291;SDS011;50628;51.008;13.658;2024-03-08T05:00:43;45.90;;;24.30;;
64291;SDS011;50628;51.008;13.658;2024-03-08T05:05:45;45.43;;;23.83;;
64291;SDS011;50628;51.008;13.658;2024-03-08T05:10:48;37.87;;;23.97;;
64291;SDS011;50628;51.008;13.658;2024-03-08T05:15:50;46.93;;;26.57;;
64291;SDS011;50628;51.008;13.658;2024-03-08T05:20:52;41.20;;;24.93;;
64291;SDS011;50628;51.008;13.658;2024-03-08T05:25:55;40.00;;;25.47;;
64291;SDS011;50628;51.008;13.658;2024-03-08T05:30:57;47.10;;;25.87;;
64291;SDS011;50628;51.008;13.658;2024-03-08T05:35:59;41.43;;;24.67;;
64291;SDS011;50628;51.008;13.658;2024-03-08T05:41:02;41.23;;;25.13;;
64291;SDS011;50628;51.008;13.658;2024-03-08T05:46:05;45.40;;;25.73;;
64291;SDS011;50628;51.008;13.658;2024-03-08T05:51:07;40.87;;;25.20;;
64291;SDS011;50628;51.008;13.658;2024-03-08T05:56:10;37.67;;;24.83;;
64291;SDS011;50628;51.008;13.658;2024-03-08T06:01:12;43.30;;;25.10;;
64291;SDS011;50628;51.008;13.658;2024-03-08T06:06:14;39.90;;;25.60;;
64291;SDS011;50628;51.008;13.658;2024-03-08T06:11:19;41.97;;;27.73;;
64291;SDS011;50628;51.008;13.658;2024-03-08T06:16:22;47.20;;;26.10;;
64291;SDS011;50628;51.008;13.658;2024-03-08T06:21:23;46.03;;;27.37;;
64291;SDS011;50628;51.008;13.658;2024-03-08T06:26:27;44.50;;;26.37;;
64291;SDS011;50628;51.008;13.658;2024-03-08T06:31:29;45.83;;;26.60;;
64291;SDS011;50628;51.008;13.658;2024-03-08T06:36:31;49.30;;;28.07;;
64291;SDS011;50628;51.008;13.658;2024-03-08T06:41:35;42.67;;;26.30;;
64291;SDS011;50628;51.008;13.658;2024-03-08T06:46:37;45.70;;;25.93;;
64291;SDS011;50628;51.008;13.658;2024-03-08T06:51:39;41.50;;;27.77;;
64291;SDS011;50628;51.008;13.658;2024-03-08T06:56:42;45.07;;;28.67;;
64291;SDS011;50628;51.008;13.658;2024-03-08T07:01:44;42.67;;;26.83;;
64291;SDS011;50628;51.008;13.658;2024-03-08T07:06:46;46.37;;;26.97;;
64291;SDS011;50628;51.008;13.658;2024-03-08T07:11:51;44.77;;;26.83;;
64291;SDS011;50628;51.008;13.658;2024-03-08T07:16:54;47.53;;;27.13;;
64291;SDS011;50628;51.008;13.658;2024-03-08T07:21:56;46.37;;;28.53;;
64291;SDS011;50628;51.008;13.658;2024-03-08T07:26:59;45.10;;;28.17;;
64291;SDS011;50628;51.008;13.658;2024-03-08T07:32:01;45.23;;;28.87;;
64291;SDS011;50628;51.008;13.658;2024-03-08T07:37:18;46.43;;;28.17;;
64291;SDS011;50628;51.008;13.658;2024-03-08T07:42:22;58.97;;;30.33;;
64291;SDS011;50628;51.008;13.658;2024-03-08T07:47:23;47.37;;;28.67;;
64291;SDS011;50628;51.008;13.658;2024-03-08T07:52:26;46.97;;;29.10;;
64291;SDS011;50628;51.008;13.658;2024-03-08T07:57:29;49.90;;;29.23;;
64291;SDS011;50628;51.008;13.658;2024-03-08T08:02:32;40.53;;;25.83;;
64291;SDS011;50628;51.008;13.658;2024-03-08T08:07:34;37.53;;;23.57;;
64291;SDS011;50628;51.008;13.658;2024-03-08T08:12:37;44.77;;;24.57;;
64291;SDS011;50628;51.008;13.658;2024-03-08T08:17:39;39.37;;;23.87;;
64291;SDS011;50628;51.008;13.658;2024-03-08T08:22:41;36.03;;;25.03;;
64291;SDS011;50628;51.008;13.658;2024-03-08T08:27:46;38.30;;;24.73;;
64291;SDS011;50628;51.008;13.658;2024-03-08T08:32:48;45.80;;;27.13;;
64291;SDS011;50628;51.008;13.658;2024-03-08T08:37:50;39.93;;;23.03;;
64291;SDS011;50628;51.008;13.658;2024-03-08T08:42:54;34.20;;;23.90;;
64291;SDS011;50628;51.008;13.658;2024-03-08T08:47:57;34.87;;;21.47;;
64291;SDS011;50628;51.008;13.658;2024-03-08T08:53:00;31.27;;;22.13;;
64291;SDS011;50628;51.008;13.658;2024-03-08T08:58:05;32.43;;;22.13;;
64291;SDS011;50628;51.008;13.658;2024-03-08T09:03:07;36.47;;;22.57;;
64291;SDS011;50628;51.008;13.658;2024-03-08T09:08:09;39.73;;;22.90;;
64291;SDS011;50628;51.008;13.658;2024-03-08T09:13:12;33.93;;;21.63;;
64291;SDS011;50628;51.008;13.658;2024-03-08T09:18:14;38.17;;;22.63;;
64291;SDS011;50628;51.008;13.658;2024-03-08T09:23:16;34.33;;;23.37;;
64291;SDS011;50628;51.008;13.658;2024-03-08T09:28:22;34.60;;;22.77;;
64291;SDS011;50628;51.008;13.658;2024-03-08T09:33:24;33.93;;;21.77;;
64291;SDS011;50628;51.008;13.658;2024-03-08T09:38:27;31.90;;;21.10;;
64291;SDS011;50628;51.008;13.658;2024-03-08T09:43:31;35.27;;;20.73;;
64291;SDS011;50628;51.008;13.658;2024-03-08T09:48:33;34.97;;;22.70;;
64291;SDS011;50628;51.008;13.658;2024-03-08T09:53:36;30.60;;;20.03;;
64291;SDS011;50628;51.008;13.658;2024-03-08T09:58:39;31.60;;;21.47;;
64291;SDS011;50628;51.008;13.658;2024-03-08T10:04:02;27.33;;;19.33;;
64291;SDS011;50628;51.008;13.658;2024-03-08T10:09:03;32.33;;;20.23;;
64291;SDS011;50628;51.008;13.658;2024-03-08T10:14:09;34.17;;;21.83;;
64291;SDS011;50628;51.008;13.658;2024-03-08T10:19:12;33.77;;;20.20;;
64291;SDS011;50628;51.008;13.658;2024-03-08T10:24:13;30.20;;;19.93;;
64291;SDS011;50628;51.008;13.658;2024-03-08T10:29:17;31.30;;;20.23;;
64291;SDS011;50628;51.008;13.658;2024-03-08T10:34:20;27.60;;;19.53;;
64291;SDS011;50628;51.008;13.658;2024-03-08T10:39:24;29.83;;;19.47;;
64291;SDS011;50628;51.008;13.658;2024-03-08T10:44:32;28.67;;;18.27;;
64291;SDS011;50628;51.008;13.658;2024-03-08T10:49:50;33.10;;;19.83;;
64291;SDS011;50628;51.008;13.658;2024-03-08T10:54:55;31.40;;;19.00;;
64291;SDS011;50628;51.008;13.658;2024-03-08T11:00:00;28.17;;;18.50;;
64291;SDS011;50628;51.008;13.658;2024-03-08T11:05:04;25.73;;;17.73;;
64291;SDS011;50628;51.008;13.658;2024-03-08T11:10:18;28.53;;;20.07;;
64291;SDS011;50628;51.008;13.658;2024-03-08T11:15:23;27.73;;;20.10;;
64291;SDS011;50628;51.008;13.658;2024-03-08T11:20:26;27.37;;;18.57;;
64291;SDS011;50628;51.008;13.658;2024-03-08T11:25:30;30.70;;;19.30;;
64291;SDS011;50628;51.008;13.658;2024-03-08T11:30:41;26.97;;;19.17;;
64291;SDS011;50628;51.008;13.658;2024-03-08T11:35:43;23.87;;;18.67;;
64291;SDS011;50628;51.008;13.658;2024-03-08T11:40:46;27.47;;;18.07;;
64291;SDS011;50628;51.008;13.658;2024-03-08T11:45:52;27.70;;;17.67;;
64291;SDS011;50628;51.008;13.658;2024-03-08T11:51:09;25.10;;;17.20;;
64291;SDS011;50628;51.008;13.658;2024-03-08T11:56:13;23.40;;;16.80;;
64291;SDS011;50628;51.008;13.658;2024-03-08T12:01:17;20.00;;;14.97;;
64291;SDS011;50628;51.008;13.658;2024-03-08T12:06:19;22.77;;;16.20;;
64291;SDS011;50628;51.008;13.658;2024-03-08T12:11:21;22.00;;;15.47;;
64291;SDS011;50628;51.008;13.658;2024-03-08T12:16:25;27.20;;;15.87;;
64291;SDS011;50628;51.008;13.658;2024-03-08T12:21:27;21.00;;;15.90;;
64291;SDS011;50628;51.008;13.658;2024-03-08T12:26:29;22.33;;;14.97;;
64291;SDS011;50628;51.008;13.658;2024-03-08T12:31:34;22.63;;;14.80;;
64291;SDS011;50628;51.008;13.658;2024-03-08T12:36:36;21.83;;;15.20;;
64291;SDS011;50628;51.008;13.658;2024-03-08T12:41:39;24.20;;;14.97;;
64291;SDS011;50628;51.008;13.658;2024-03-08T12:46:43;19.67;;;13.73;;
64291;SDS011;50628;51.008;13.658;2024-03-08T12:51:46;17.97;;;13.57;;
64291;SDS011;50628;51.008;13.658;2024-03-08T12:56:48;19.87;;;13.73;;
64291;SDS011;50628;51.008;13.658;2024-03-08T13:01:55;18.13;;;13.37;;
64291;SDS011;50628;51.008;13.658;2024-03-08T13:06:58;17.83;;;13.77;;
64291;SDS011;50628;51.008;13.658;2024-03-08T13:12:01;15.53;;;12.90;;
64291;SDS011;50628;51.008;13.658;2024-03-08T13:17:05;21.97;;;13.07;;
64291;SDS011;50628;51.008;13.658;2024-03-08T13:22:11;16.03;;;12.30;;
64291;SDS011;50628;51.008;13.658;2024-03-08T13:27:13;16.97;;;11.90;;
64291;SDS011;50628;51.008;13.658;2024-03-08T13:32:23;18.13;;;11.73;;
64291;SDS011;50628;51.008;13.658;2024-03-08T13:37:26;17.13;;;10.87;;
64291;SDS011;50628;51.008;13.658;2024-03-08T13:42:29;14.03;;;11.10;;
64291;SDS011;50628;51.008;13.658;2024-03-08T13:47:32;13.27;;;10.03;;
64291;SDS011;50628;51.008;13.658;2024-03-08T13:52:36;13.90;;;10.47;;
64291;SDS011;50628;51.008;13.658;2024-03-08T13:57:38;12.43;;;9.73;;
64291;SDS011;50628;51.008;13.658;2024-03-08T14:02:41;11.90;;;9.70;;
64291;SDS011;50628;51.008;13.658;2024-03-08T14:07:43;12.63;;;9.70;;
64291;SDS011;50628;51.008;13.658;2024-03-08T14:12:46;11.33;;;9.83;;
64291;SDS011;50628;51.008;13.658;2024-03-08T14:17:53;14.70;;;9.93;;
64291;SDS011;50628;51.008;13.658;2024-03-08T14:22:55;11.90;;;9.17;;
64291;SDS011;50628;51.008;13.658;2024-03-08T14:27:57;11.37;;;8.87;;
64291;SDS011;50628;51.008;13.658;2024-03-08T14:33:05;8.47;;;7.13;;
64291;SDS011;50628;51.008;13.658;2024-03-08T14:38:09;13.47;;;7.97;;
64291;SDS011;50628;51.008;13.658;2024-03-08T14:43:11;15.30;;;8.20;;
64291;SDS011;50628;51.008;13.658;2024-03-08T14:48:15;8.97;;;7.17;;
64291;SDS011;50628;51.008;13.658;2024-03-08T14:53:16;12.60;;;7.77;;
64291;SDS011;50628;51.008;13.658;2024-03-08T15:04:22;9.57;;;7.00;;
64291;SDS011;50628;51.008;13.658;2024-03-08T15:09:24;9.03;;;7.60;;
64291;SDS011;50628;51.008;13.658;2024-03-08T15:14:26;12.00;;;8.93;;
64291;SDS011;50628;51.008;13.658;2024-03-08T15:19:29;9.53;;;7.33;;
64291;SDS011;50628;51.008;13.658;2024-03-08T15:24:31;12.47;;;8.03;;
64291;SDS011;50628;51.008;13.658;2024-03-08T15:29:33;8.70;;;7.27;;
64291;SDS011;50628;51.008;13.658;2024-03-08T15:34:37;9.33;;;7.33;;
64291;SDS011;50628;51.008;13.658;2024-03-08T15:39:43;9.77;;;7.57;;
64291;SDS011;50628;51.008;13.658;2024-03-08T15:44:45;11.57;;;7.43;;
64291;SDS011;50628;51.008;13.658;2024-03-08T15:49:49;11.93;;;7.57;;
64291;SDS011;50628;51.008;13.658;2024-03-08T15:54:51;11.30;;;8.20;;
64291;SDS011;50628;51.008;13.658;2024-03-08T15:59:53;11.30;;;8.67;;
64291;SDS011;50628;51.008;13.658;2024-03-08T16:05:01;12.77;;;10.07;;
64291;SDS011;50628;51.008;13.658;2024-03-08T16:10:07;12.53;;;9.60;;
64291;SDS011;50628;51.008;13.658;2024-03-08T16:15:11;14.83;;;9.47;;
64291;SDS011;50628;51.008;13.658;2024-03-08T16:20:15;12.00;;;10.03;;
64291;SDS011;50628;51.008;13.658;2024-03-08T16:25:17;14.93;;;9.37;;
64291;SDS011;50628;51.008;13.658;2024-03-08T16:30:20;16.93;;;9.63;;
64291;SDS011;50628;51.008;13.658;2024-03-08T16:35:25;14.90;;;10.20;;
64291;SDS011;50628;51.008;13.658;2024-03-08T16:40:27;13.63;;;10.40;;
64291;SDS011;50628;51.008;13.658;2024-03-08T16:45:29;13.87;;;10.63;;
64291;SDS011;50628;51.008;13.658;2024-03-08T16:50:33;14.20;;;11.20;;
64291;SDS011;50628;51.008;13.658;2024-03-08T16:55:35;19.73;;;10.47;;
64291;SDS011;50628;51.008;13.658;2024-03-08T17:00:37;13.87;;;10.93;;
64291;SDS011;50628;51.008;13.658;2024-03-08T17:05:40;14.10;;;10.87;;
64291;SDS011;50628;51.008;13.658;2024-03-08T17:10:45;16.13;;;12.30;;
64291;SDS011;50628;51.008;13.658;2024-03-08T17:15:47;18.40;;;12.00;;
64291;SDS011;50628;51.008;13.658;2024-03-08T17:20:50;16.90;;;12.63;;
64291;SDS011;50628;51.008;13.658;2024-03-08T17:25:53;19.80;;;13.80;;
64291;SDS011;50628;51.008;13.658;2024-03-08T17:30:57;22.00;;;12.93;;
64291;SDS011;50628;51.008;13.658;2024-03-08T17:36:02;17.70;;;12.80;;
64291;SDS011;50628;51.008;13.658;2024-03-08T17:41:07;22.57;;;14.23;;
64291;SDS011;50628;51.008;13.658;2024-03-08T17:46:09;20.57;;;13.40;;
64291;SDS011;50628;51.008;13.658;2024-03-08T17:51:14;23.07;;;14.83;;
64291;SDS011;50628;51.008;13.658;2024-03-08T17:56:16;20.27;;;13.70;;
64291;SDS011;50628;51.008;13.658;2024-03-08T18:01:18;19.30;;;12.67;;
64291;SDS011;50628;51.008;13.658;2024-03-08T18:06:21;20.43;;;12.27;;
64291;SDS011;50628;51.008;13.658;2024-03-08T18:11:24;18.70;;;12.43;;
64291;SDS011;50628;51.008;13.658;2024-03-08T18:16:26;20.03;;;14.57;;
64291;SDS011;50628;51.008;13.658;2024-03-08T18:21:29;21.70;;;16.00;;
64291;SDS011;50628;51.008;13.658;2024-03-08T18:26:31;23.43;;;16.83;;
64291;SDS011;50628;51.008;13.658;2024-03-08T18:31:34;23.93;;;16.83;;
64291;SDS011;50628;51.008;13.658;2024-03-08T18:36:37;22.83;;;16.53;;
64291;SDS011;50628;51.008;13.658;2024-03-08T18:41:39;22.67;;;16.17;;
64291;SDS011;50628;51.008;13.658;2024-03-08T18:46:42;17.87;;;13.53;;
64291;SDS011;50628;51.008;13.658;2024-03-08T18:51:46;20.57;;;14.27;;
64291;SDS011;50628;51.008;13.658;2024-03-08T18:56:52;18.30;;;13.13;;
64291;SDS011;50628;51.008;13.658;2024-03-08T19:01:57;18.07;;;13.93;;
64291;SDS011;50628;51.008;13.658;2024-03-08T19:07:01;18.87;;;13.20;;
64291;SDS011;50628;51.008;13.658;2024-03-08T19:12:05;16.50;;;12.33;;
64291;SDS011;50628;51.008;13.658;2024-03-08T19:17:08;15.73;;;11.53;;
64291;SDS011;50628;51.008;13.658;2024-03-08T19:22:14;14.70;;;11.17;;
64291;SDS011;50628;51.008;13.658;2024-03-08T19:27:17;16.07;;;10.80;;
64291;SDS011;50628;51.008;13.658;2024-03-08T19:32:19;16.47;;;11.13;;
64291;SDS011;50628;51.008;13.658;2024-03-08T19:37:22;13.97;;;10.27;;
64291;SDS011;50628;51.008;13.658;2024-03-08T19:42:25;11.13;;;9.03;;
64291;SDS011;50628;51.008;13.658;2024-03-08T19:47:26;12.27;;;10.53;;
64291;SDS011;50628;51.008;13.658;2024-03-08T19:52:31;11.87;;;8.93;;
64291;SDS011;50628;51.008;13.658;2024-03-08T19:57:34;11.17;;;8.93;;
64291;SDS011;50628;51.008;13.658;2024-03-08T20:02:36;16.27;;;10.03;;
64291;SDS011;50628;51.008;13.658;2024-03-08T20:07:40;16.93;;;10.23;;
64291;SDS011;50628;51.008;13.658;2024-03-08T20:12:42;14.33;;;10.50;;
64291;SDS011;50628;51.008;13.658;2024-03-08T20:17:46;14.93;;;9.67;;
64291;SDS011;50628;51.008;13.658;2024-03-08T20:22:49;14.43;;;10.37;;
64291;SDS011;50628;51.008;13.658;2024-03-08T20:27:52;16.27;;;9.90;;
64291;SDS011;50628;51.008;13.658;2024-03-08T20:32:57;14.60;;;10.23;;
64291;SDS011;50628;51.008;13.658;2024-03-08T20:38:04;14.60;;;9.93;;
64291;SDS011;50628;51.008;13.658;2024-03-08T20:43:07;15.53;;;10.53;;
64291;SDS011;50628;51.008;13.658;2024-03-08T20:48:10;15.97;;;11.43;;
64291;SDS011;50628;51.008;13.658;2024-03-08T20:53:15;17.53;;;11.67;;
64291;SDS011;50628;51.008;13.658;2024-03-08T20:58:17;17.07;;;12.30;;
64291;SDS011;50628;51.008;13.658;2024-03-08T21:03:21;17.63;;;11.77;;
64291;SDS011;50628;51.008;13.658;2024-03-08T21:08:26;19.00;;;11.83;;
64291;SDS011;50628;51.008;13.658;2024-03-08T21:13:28;19.30;;;13.30;;
64291;SDS011;50628;51.008;13.658;2024-03-08T21:18:30;18.27;;;12.43;;
64291;SDS011;50628;51.008;13.658;2024-03-08T21:23:33;18.23;;;12.70;;
64291;SDS011;50628;51.008;13.658;2024-03-08T21:28:35;19.40;;;13.43;;
64291;SDS011;50628;51.008;13.658;2024-03-08T21:33:38;18.60;;;13.07;;
64291;SDS011;50628;51.008;13.658;2024-03-08T21:38:41;19.33;;;13.37;;
64291;SDS011;50628;51.008;13.658;2024-03-08T21:43:44;18.67;;;12.83;;
64291;SDS011;50628;51.008;13.658;2024-03-08T21:48:46;22.23;;;13.03;;
64291;SDS011;50628;51.008;13.658;2024-03-08T21:53:49;22.87;;;14.07;;
64291;SDS011;50628;51.008;13.658;2024-03-08T21:58:53;21.37;;;14.13;;
64291;SDS011;50628;51.008;13.658;2024-03-08T22:03:55;22.07;;;14.00;;
64291;SDS011;50628;51.008;13.658;2024-03-08T22:08:59;20.27;;;13.97;;
64291;SDS011;50628;51.008;13.658;2024-03-08T22:14:06;21.37;;;14.07;;
64291;SDS011;50628;51.008;13.658;2024-03-08T22:19:08;22.17;;;14.17;;
64291;SDS011;50628;51.008;13.658;2024-03-08T22:24:12;18.83;;;14.37;;
64291;SDS011;50628;51.008;13.658;2024-03-08T22:29:14;23.60;;;15.07;;
64291;SDS011;50628;51.008;13.658;2024-03-08T22:34:16;20.40;;;13.80;;
64291;SDS011;50628;51.008;13.658;2024-03-08T22:39:19;21.23;;;14.33;;
64291;SDS011;50628;51.008;13.658;2024-03-08T22:44:24;22.23;;;14.13;;
64291;SDS011;50628;51.008;13.658;2024-03-08T22:49:27;20.10;;;13.40;;
64291;SDS011;50628;51.008;13.658;2024-03-08T22:54:31;20.00;;;12.97;;
64291;SDS011;50628;51.008;13.658;2024-03-08T22:59:32;21.70;;;13.90;;
64291;SDS011;50628;51.008;13.658;2024-03-08T23:04:34;18.60;;;13.50;;
64291;SDS011;50628;51.008;13.658;2024-03-08T23:09:37;18.03;;;13.63;;
64291;SDS011;50628;51.008;13.658;2024-03-08T23:14:39;20.87;;;13.63;;
64291;SDS011;50628;51.008;13.658;2024-03-08T23:19:42;17.63;;;12.90;;
64291;SDS011;50628;51.008;13.658;2024-03-08T23:24:46;19.57;;;12.77;;
64291;SDS011;50628;51.008;13.658;2024-03-08T23:29:48;17.13;;;12.57;;
64291;SDS011;50628;51.008;13.658;2024-03-08T23:34:50;18.37;;;12.80;;
64291;SDS011;50628;51.008;13.658;2024-03-08T23:39:53;19.27;;;13.23;;
64291;SDS011;50628;51.008;13.658;2024-03-08T23:44:55;17.53;;;11.57;;
64291;SDS011;50628;51.008;13.658;2024-03-08T23:49:57;17.33;;;11.70;;
64291;SDS011;50628;51.008;13.658;2024-03-08T23:55:01;15.83;;;11.90;;
